Time;durP1;ratioP1;P1;durP2;ratioP2;P2;SDS_P1;SDS_P2;PMS_P1;PMS_P2;Temp;Humidity;BMP_temperature;BMP_pressure;BME280_temperature;BME280_humidity;BME280_pressure;Samples;Min_cycle;Max_cycle;Signal;HPM_P1;HPM_P2
2021/04/12 00:01:05;;;;;;;11.75;9.43;;;;;;;10.25;47.14;101456.91;1834245;77;21052;-88
2021/04/12 00:03:47;;;;;;;15.98;9.83;;;;;;;10.26;47.65;101455.16;1759591;81;21137;-89
2021/04/12 00:09:39;;;;;;;18.20;9.60;;;;;;;10.26;48.11;101448.17;1859836;77;21144;-88
2021/04/12 00:12:16;;;;;;;14.30;9.63;;;;;;;10.25;48.92;101442.59;1856485;77;21197;-90
2021/04/12 00:14:54;;;;;;;13.98;9.48;;;;;;;10.24;49.75;101442.70;1856443;77;21164;-89
2021/04/12 00:17:33;;;;;;;14.93;10.08;;;;;;;10.22;50.21;101432.83;1789271;78;21119;-87
2021/04/12 00:20:24;;;;;;;16.07;9.40;;;;;;;10.22;51.32;101436.73;1777184;80;21139;-88
2021/04/12 00:23:06;;;;;;;15.48;9.35;;;;;;;10.19;52.06;101431.73;1778696;80;21131;-88
2021/04/12 00:25:56;;;;;;;14.60;9.88;;;;;;;10.19;52.92;101431.73;1773697;80;21167;-88
2021/04/12 00:28:50;;;;;;;12.80;8.55;;;;;;;10.18;53.49;101426.98;1762608;80;21155;-90
2021/04/12 00:31:29;;;;;;;14.87;9.40;;;;;;;10.17;54.51;101425.78;1802376;77;21115;-90
2021/04/12 00:34:07;;;;;;;10.88;8.60;;;;;;;10.15;54.23;101432.39;1788821;79;21584;-88
2021/04/12 00:36:52;;;;;;;13.20;8.68;;;;;;;10.15;54.70;101432.39;1799516;78;21206;-89
2021/04/12 00:39:43;;;;;;;14.30;9.23;;;;;;;10.15;55.01;101427.63;1787356;80;21380;-89
2021/04/12 00:42:32;;;;;;;10.48;8.25;;;;;;;10.16;55.08;101426.70;1812447;78;21222;-87
2021/04/12 00:45:35;;;;;;;13.55;9.45;;;;;;;10.15;56.29;101414.17;1800863;78;21599;-89
2021/04/12 00:48:37;;;;;;;15.58;9.60;;;;;;;10.14;57.39;101397.33;1789513;79;21167;-90
2021/04/12 00:51:30;;;;;;;11.30;8.05;;;;;;;10.12;58.38;101379.22;1789649;80;21615;-89
2021/04/12 00:54:30;;;;;;;16.25;9.83;;;;;;;10.10;59.37;101375.86;1789570;80;22564;-90
2021/04/12 00:57:07;;;;;;;13.75;10.00;;;;;;;10.07;59.76;101380.79;1789479;80;21567;-88
2021/04/12 00:59:57;;;;;;;14.50;9.15;;;;;;;10.07;60.97;101379.97;1784859;80;21555;-89
2021/04/12 01:03:03;;;;;;;12.33;9.70;;;;;;;10.05;61.65;101374.87;1771526;80;21565;-88
2021/04/12 01:06:02;;;;;;;14.23;10.20;;;;;;;10.05;62.46;101374.02;1792334;79;21112;-88
2021/04/12 01:08:54;;;;;;;15.38;9.95;;;;;;;10.04;64.13;101369.29;1795525;79;21557;-89
2021/04/12 01:12:09;;;;;;;16.77;10.93;;;;;;;10.04;65.12;101371.89;1795601;79;21459;-90
2021/04/12 01:15:04;;;;;;;16.10;11.78;;;;;;;10.05;65.87;101376.61;1795622;79;22263;-90
2021/04/12 01:18:15;;;;;;;13.90;9.88;;;;;;;10.05;66.29;101372.27;1794984;78;22010;-90
2021/04/12 01:21:25;;;;;;;16.40;10.45;;;;;;;10.06;67.22;101373.91;1795156;80;21817;-89
2021/04/12 01:24:35;;;;;;;17.62;10.58;;;;;;;10.05;67.40;101370.97;1794957;78;22287;-89
2021/04/12 01:27:51;;;;;;;14.58;10.55;;;;;;;10.04;67.89;101364.08;1765710;80;21133;-90
2021/04/12 01:31:06;;;;;;;15.95;11.12;;;;;;;10.03;68.64;101368.91;1795012;78;21162;-88
2021/04/12 01:33:59;;;;;;;17.85;11.90;;;;;;;10.01;69.54;101369.94;1794952;78;21138;-88
2021/04/12 01:36:50;;;;;;;17.92;11.30;;;;;;;10.00;70.57;101365.66;1794964;79;21157;-89
2021/04/12 01:40:08;;;;;;;16.32;10.93;;;;;;;9.97;71.65;101361.48;1791037;78;21207;-88
2021/04/12 01:43:20;;;;;;;17.37;12.07;;;;;;;9.96;73.04;101358.51;1794876;78;21125;-90
2021/04/12 01:46:06;;;;;;;;;;;;;;;9.93;74.46;101354.30;1797580;79;21257;-90
2021/04/12 01:49:11;;;;;;;17.77;12.45;;;;;;;9.94;76.21;101366.86;1794932;79;20231;-90
2021/04/12 01:52:05;;;;;;;15.83;11.20;;;;;;;9.91;77.39;101364.44;1795127;78;21146;-89
2021/04/12 01:55:15;;;;;;;17.20;11.60;;;;;;;9.91;78.79;101367.03;1783290;80;21476;-90
2021/04/12 01:58:12;;;;;;;17.77;10.48;;;;;;;9.89;80.50;101368.44;1794993;80;21075;-90
2021/04/12 02:00:51;;;;;;;16.37;10.78;;;;;;;9.88;82.29;101377.64;1795040;78;21134;-90
2021/04/12 02:03:56;;;;;;;17.77;11.18;;;;;;;9.86;83.06;101372.52;1787858;80;21064;-90
2021/04/12 02:06:50;;;;;;;16.95;11.35;;;;;;;9.86;84.21;101375.59;1794906;78;21122;-88
2021/04/12 02:09:45;;;;;;;16.97;10.30;;;;;;;9.85;84.20;101371.31;1794901;80;21361;-89
2021/04/12 02:12:57;;;;;;;21.48;11.15;;;;;;;9.83;84.78;101363.61;1794198;80;21103;-91
2021/04/12 02:15:43;;;;;;;17.65;10.90;;;;;;;9.81;86.29;101353.75;1794878;80;21149;-89
2021/04/12 02:18:37;;;;;;;15.75;10.48;;;;;;;9.79;88.81;101353.86;1793811;80;21102;-88
2021/04/12 02:21:22;;;;;;;19.92;11.20;;;;;;;9.78;89.84;101357.83;1794965;78;21598;-88
2021/04/12 02:24:02;;;;;;;14.00;10.28;;;;;;;9.76;92.51;101357.94;1794320;80;22352;-89
2021/04/12 02:27:15;;;;;;;17.95;11.60;;;;;;;9.74;94.45;101357.18;1791305;80;21197;-89
2021/04/12 02:30:06;;;;;;;18.60;10.82;;;;;;;9.72;98.11;101346.05;1794955;78;21118;-88
2021/04/12 02:33:27;;;;;;;20.10;11.23;;;;;;;9.67;100.00;101354.58;1764536;80;21063;-89
2021/04/12 02:36:22;;;;;;;16.77;11.18;;;;;;;9.63;100.00;101360.90;1699352;84;21107;-89
2021/04/12 02:39:26;;;;;;;17.02;11.57;;;;;;;9.59;100.00;101361.99;1783100;80;22295;-90
2021/04/12 02:42:11;;;;;;;19.87;11.28;;;;;;;9.53;100.00;101364.96;1666683;80;21226;-90
2021/04/12 02:45:00;;;;;;;19.98;11.12;;;;;;;9.48;100.00;101367.83;1783732;80;21686;-90
2021/04/12 02:48:04;;;;;;;16.50;11.22;;;;;;;9.43;100.00;101366.80;1785312;80;21215;-90
2021/04/12 02:50:53;;;;;;;17.40;11.78;;;;;;;9.39;100.00;101367.91;1786961;80;21147;-89
2021/04/12 02:53:53;;;;;;;18.95;11.28;;;;;;;9.34;100.00;101366.03;1786835;80;21343;-90
2021/04/12 02:56:59;;;;;;;15.55;11.60;;;;;;;9.30;100.00;101368.44;1786918;80;21136;-90
2021/04/12 02:59:54;;;;;;;20.27;12.15;;;;;;;9.26;100.00;101373.43;1786855;80;21143;-90
2021/04/12 03:02:48;;;;;;;19.60;12.07;;;;;;;9.24;100.00;101374.00;1783267;80;21154;-90
2021/04/12 03:05:43;;;;;;;21.77;12.30;;;;;;;9.21;100.00;101373.72;1783127;80;21151;-88
2021/04/12 03:08:30;;;;;;;15.50;11.45;;;;;;;9.20;100.00;101370.74;1783302;80;22121;-88
2021/04/12 03:11:40;;;;;;;17.02;11.00;;;;;;;9.20;100.00;101374.64;1785629;80;21227;-89
2021/04/12 03:14:46;;;;;;;17.57;11.83;;;;;;;9.20;100.00;101369.44;1786892;80;21164;-90
2021/04/12 03:17:25;;;;;;;19.77;12.10;;;;;;;9.22;100.00;101377.14;1737263;80;21210;-89
2021/04/12 03:20:32;;;;;;;22.22;12.88;;;;;;;9.21;100.00;101378.92;1786846;80;21674;-89
2021/04/12 03:23:30;;;;;;;18.32;12.58;;;;;;;9.22;100.00;101378.44;1786799;80;21469;-90
2021/04/12 03:26:24;;;;;;;18.05;12.15;;;;;;;9.22;100.00;101384.94;1785455;80;21143;-88
2021/04/12 03:29:17;;;;;;;21.87;12.37;;;;;;;9.22;100.00;101381.04;1763370;80;21175;-90
2021/04/12 03:32:18;;;;;;;20.65;12.78;;;;;;;9.22;100.00;101382.34;1818024;78;21201;-90
2021/04/12 03:34:59;;;;;;;;;;;;;;;9.24;100.00;101383.09;1801019;77;21167;-87
2021/04/12 03:37:50;;;;;;;20.25;12.40;;;;;;;9.26;100.00;101380.78;1791316;80;21358;-89
2021/04/12 03:40:26;;;;;;;20.70;12.60;;;;;;;9.34;100.00;101384.70;1807913;78;21547;-89
2021/04/12 03:43:17;;;;;;;22.93;12.70;;;;;;;9.41;100.00;101383.41;1813623;78;21085;-89
2021/04/12 03:46:23;;;;;;;23.07;13.18;;;;;;;9.42;100.00;101389.81;1818511;78;21225;-89
2021/04/12 03:49:20;;;;;;;22.95;12.58;;;;;;;9.43;100.00;101385.47;1797011;78;21547;-88
2021/04/12 03:52:09;;;;;;;17.90;12.33;;;;;;;9.43;100.00;101384.99;1794716;78;21647;-89
2021/04/12 03:55:01;;;;;;;20.05;13.75;;;;;;;9.42;100.00;101378.11;1794659;80;21142;-89
2021/04/12 03:58:01;;;;;;;22.42;14.23;;;;;;;9.44;100.00;101380.65;1796444;78;21141;-89
2021/04/12 04:00:47;;;;;;;25.17;14.60;;;;;;;9.46;100.00;101381.38;1796182;78;21184;-90
2021/04/12 04:03:29;;;;;;;26.50;13.90;;;;;;;9.49;100.00;101379.91;1790876;80;21433;-89
2021/04/12 04:06:21;;;;;;;24.15;15.58;;;;;;;9.52;100.00;101387.54;1789823;80;22395;-89
2021/04/12 04:09:23;;;;;;;29.48;17.12;;;;;;;9.53;100.00;101380.56;1794672;80;21583;-89
2021/04/12 04:12:02;;;;;;;26.40;15.73;;;;;;;9.55;100.00;101386.04;1741814;80;21981;-90
2021/04/12 04:14:40;;;;;;;39.53;18.10;;;;;;;9.57;100.00;101389.87;1791682;80;21343;-90
2021/04/12 04:17:49;;;;;;;26.07;15.72;;;;;;;9.62;100.00;101383.92;1789711;80;21132;-92
2021/04/12 04:20:28;;;;;;;31.87;15.38;;;;;;;9.75;100.00;101384.87;1791086;80;21380;-92
2021/04/12 04:23:50;;;;;;;22.52;15.53;;;;;;;9.82;100.00;101386.65;1790873;80;21152;-91
2021/04/12 04:26:41;;;;;;;;;;;;;;;9.83;100.00;101391.38;1798097;80;21154;-89
2021/04/12 04:29:29;;;;;;;26.07;15.32;;;;;;;9.83;100.00;101390.07;1803319;78;20293;-89
2021/04/12 04:32:31;;;;;;;27.40;14.85;;;;;;;9.80;100.00;101392.40;1788404;80;21176;-88
2021/04/12 04:35:18;;;;;;;22.42;15.70;;;;;;;9.79;100.00;101390.72;1794773;80;21708;-89
2021/04/12 04:38:17;;;;;;;29.70;16.77;;;;;;;9.79;100.00;101386.81;1797772;78;21206;-90
2021/04/12 04:41:00;;;;;;;23.98;13.62;;;;;;;9.87;100.00;101391.09;1783675;79;21142;-89
2021/04/12 04:44:04;;;;;;;33.70;14.15;;;;;;;9.94;100.00;101385.90;1790825;79;21575;-90
2021/04/12 04:46:43;;;;;;;34.13;15.93;;;;;;;10.06;100.00;101379.11;1808755;79;21143;-89
2021/04/12 04:49:50;;;;;;;23.80;15.90;;;;;;;10.14;100.00;101379.11;1802901;79;22285;-89
2021/04/12 04:52:52;;;;;;;32.03;16.30;;;;;;;10.14;100.00;101383.02;1808481;79;21187;-89
2021/04/12 04:56:08;;;;;;;27.70;17.77;;;;;;;10.12;100.00;101382.30;1801529;79;21656;-88
2021/04/12 04:59:07;;;;;;;32.60;16.37;;;;;;;10.11;100.00;101372.33;1804112;78;21174;-88
2021/04/12 05:02:06;;;;;;;24.18;17.12;;;;;;;10.15;100.00;101371.67;1793182;80;21350;-86
2021/04/12 05:08:43;;;;;;;25.17;16.93;;;;;;;10.22;100.00;101367.31;1848917;77;21064;-89
2021/04/12 05:11:33;;;;;;;25.95;17.17;;;;;;;10.22;100.00;101362.56;1833635;77;21138;-88
2021/04/12 05:14:19;;;;;;;32.08;17.15;;;;;;;10.19;100.00;101366.19;1834243;77;21147;-87
2021/04/12 05:17:30;;;;;;;25.50;16.07;;;;;;;10.20;100.00;101364.44;1820732;77;21151;-88
2021/04/12 05:20:09;;;;;;;33.65;21.48;;;;;;;10.19;100.00;101360.16;1848663;77;21567;-87
2021/04/12 05:23:04;;;;;;;22.93;16.40;;;;;;;10.20;100.00;101369.65;1768547;80;21143;-89
2021/04/12 05:25:54;;;;;;;28.80;16.75;;;;;;;10.21;100.00;101366.13;1847101;77;21353;-89
2021/04/12 05:29:05;;;;;;;26.87;17.10;;;;;;;10.22;100.00;101358.20;1822168;77;21117;-88
2021/04/12 05:32:02;;;;;;;24.72;16.73;;;;;;;10.28;100.00;101361.35;1841572;77;21228;-88
2021/04/12 05:35:13;;;;;;;26.90;16.80;;;;;;;10.30;100.00;101360.32;1846842;77;21162;-89
2021/04/12 05:38:37;;;;;;;32.30;17.10;;;;;;;10.34;100.00;101362.27;1817675;78;21243;-87
2021/04/12 05:41:52;;;;;;;24.75;16.97;;;;;;;10.34;100.00;101363.12;1828956;77;22110;-88
2021/04/12 05:44:44;;;;;;;23.15;16.62;;;;;;;10.37;100.00;101372.53;1843389;77;21092;-87
2021/04/12 05:47:51;;;;;;;28.38;17.42;;;;;;;10.36;100.00;101372.98;1848471;77;21598;-87
2021/04/12 05:50:56;;;;;;;27.98;16.93;;;;;;;10.34;100.00;101374.83;1848565;77;21131;-88
2021/04/12 05:53:51;;;;;;;36.23;17.23;;;;;;;10.35;100.00;101374.35;1844382;77;21123;-88
2021/04/12 05:56:56;;;;;;;18.62;15.32;;;;;;;10.41;100.00;101377.45;1840242;77;21322;-87
2021/04/12 05:59:39;;;;;;;24.67;17.32;;;;;;;10.46;100.00;101375.86;1797097;79;21163;-87
2021/04/12 06:02:27;;;;;;;23.42;16.27;;;;;;;10.51;100.00;101367.77;1788885;80;21154;-89
2021/04/12 06:05:26;;;;;;;26.70;17.98;;;;;;;10.54;100.00;101380.58;1781016;80;21178;-89
2021/04/12 06:08:25;;;;;;;30.60;18.27;;;;;;;10.57;100.00;101373.44;1752945;80;21171;-90
2021/04/12 06:11:21;;;;;;;31.07;20.45;;;;;;;10.61;100.00;101374.08;1758456;81;22193;-89
2021/04/12 06:14:15;;;;;;;32.63;21.05;;;;;;;10.63;100.00;101378.70;1721019;82;21650;-90
2021/04/12 06:17:00;;;;;;;33.53;21.23;;;;;;;10.64;100.00;101382.16;1735121;81;21176;-90
2021/04/12 06:24:06;;;;;;;26.40;19.40;;;;;;;10.62;100.00;101395.25;1762873;81;21172;-85
2021/04/12 06:35:52;;;;;;;32.63;20.43;;;;;;;10.53;100.00;101399.77;1747931;82;21140;-86
2021/04/12 06:46:55;;;;;;;32.33;21.33;;;;;;;10.56;100.00;101399.55;1763000;81;21561;-87
2021/04/12 06:58:07;;;;;;;39.63;26.17;;;;;;;10.99;100.00;101396.84;1751662;82;21074;-87
2021/04/12 07:10:17;;;;;;;34.30;23.98;;;;;;;11.12;100.00;101405.16;1832857;76;21134;-85
2021/04/12 07:21:36;;;;;;;31.20;21.23;;;;;;;11.08;100.00;101404.52;1853647;76;21100;-84
2021/04/12 07:24:36;;;;;;;27.37;21.42;;;;;;;11.17;100.00;101402.63;1816754;78;21142;-86
2021/04/12 07:27:48;;;;;;;26.07;18.20;;;;;;;11.26;100.00;101401.66;1768136;79;21185;-86
2021/04/12 07:30:23;;;;;;;26.73;18.80;;;;;;;11.33;100.00;101397.70;1758385;80;21529;-86
2021/04/12 07:38:06;;;;;;;24.70;18.20;;;;;;;11.42;100.00;101400.16;1847077;76;21119;-87
2021/04/12 07:49:30;;;;;;;22.48;15.63;;;;;;;11.51;100.00;101400.41;1848907;77;21528;-87
2021/04/12 07:56:39;;;;;;;21.37;16.12;;;;;;;11.51;100.00;101399.55;1845343;76;21151;-87
2021/04/12 08:11:24;;;;;;;;;;;;;;;11.95;100.00;101396.18;1760706;81;21418;-87
2021/04/12 08:14:42;;;;;;;10.03;7.42;;;;;;;12.06;100.00;101396.32;1746853;80;20509;-86
2021/04/12 08:17:58;;;;;;;9.38;7.30;;;;;;;12.14;100.00;101391.86;1777684;79;21457;-88
2021/04/12 08:21:13;;;;;;;10.72;6.87;;;;;;;12.27;100.00;101388.78;1795931;79;21564;-88
2021/04/12 08:24:22;;;;;;;13.15;9.60;;;;;;;12.50;100.00;101396.77;1802357;79;21148;-88
2021/04/12 08:27:25;;;;;;;13.20;8.80;;;;;;;12.68;100.00;101399.02;1790008;79;21134;-88
2021/04/12 08:30:41;;;;;;;13.13;9.13;;;;;;;12.83;100.00;101396.60;1767741;79;21187;-88
2021/04/12 08:38:20;;;;;;;14.23;10.15;;;;;;;13.26;100.00;101401.28;1774756;78;21174;-88
2021/04/12 08:41:26;;;;;;;13.20;9.00;;;;;;;13.45;100.00;101397.34;1782562;79;22272;-87
2021/04/12 08:48:30;;;;;;;13.03;8.90;;;;;;;13.55;100.00;101400.09;1779937;78;21112;-88
2021/04/12 08:56:07;;;;;;;17.05;12.20;;;;;;;13.38;100.00;101386.48;1786430;80;21100;-88
2021/04/12 09:03:06;;;;;;;14.07;11.05;;;;;;;13.37;100.00;101384.81;1787198;79;21151;-88
2021/04/12 09:06:07;;;;;;;16.57;12.15;;;;;;;13.56;100.00;101379.52;1789128;79;21103;-88
2021/04/12 09:16:19;;;;;;;13.25;11.43;;;;;;;14.16;100.00;101369.67;1819172;78;21128;-88
2021/04/12 09:28:08;;;;;;;12.50;9.48;;;;;;;14.23;100.00;101380.51;1823147;77;21551;-88
2021/04/12 09:35:49;;;;;;;12.95;9.25;;;;;;;13.93;100.00;101388.95;1805671;78;21159;-88
2021/04/12 09:38:50;;;;;;;13.85;9.98;;;;;;;13.89;100.00;101388.36;1808552;77;21536;-88
2021/04/12 09:42:09;;;;;;;13.13;9.68;;;;;;;13.84;100.00;101395.26;1804035;78;21149;-87
2021/04/12 09:45:10;;;;;;;10.53;8.65;;;;;;;13.78;100.00;101392.30;1831071;78;22145;-86
2021/04/12 09:48:04;;;;;;;13.65;9.43;;;;;;;13.73;100.00;101384.30;1823862;77;21067;-86
2021/04/12 09:51:13;;;;;;;11.88;9.30;;;;;;;13.77;100.00;101380.98;1847743;77;21116;-88
2021/04/12 09:54:00;;;;;;;15.03;9.93;;;;;;;13.79;100.00;101386.08;1851512;77;21540;-88
2021/04/12 09:57:18;;;;;;;12.70;8.60;;;;;;;13.77;100.00;101382.77;1851144;77;21207;-88
2021/04/12 09:59:59;;;;;;;11.75;8.35;;;;;;;13.77;100.00;101384.09;1808230;78;21362;-88
2021/04/12 10:03:16;;;;;;;11.20;8.93;;;;;;;13.77;100.00;101386.21;1831099;78;21148;-88
2021/04/12 10:06:44;;;;;;;7.50;6.55;;;;;;;13.73;100.00;101387.41;1794772;79;21164;-88
2021/04/12 10:09:53;;;;;;;7.45;6.20;;;;;;;13.65;100.00;101381.92;1768408;80;21554;-88
2021/04/12 10:12:46;;;;;;;7.10;6.17;;;;;;;13.62;100.00;101388.20;1742332;81;21574;-88
2021/04/12 10:15:51;;;;;;;6.37;5.78;;;;;;;13.59;100.00;101395.45;1788588;79;21521;-87
2021/04/12 10:19:11;;;;;;;32.23;7.08;;;;;;;13.49;100.00;101394.86;1842703;77;21151;-87
2021/04/12 10:22:05;;;;;;;9.15;6.55;;;;;;;13.41;100.00;101395.91;1853440;77;21143;-87
2021/04/12 10:24:57;;;;;;;7.90;7.05;;;;;;;13.33;100.00;101398.23;1853393;77;21111;-87
2021/04/12 10:27:56;;;;;;;7.28;5.42;;;;;;;13.30;100.00;101399.76;1841666;77;21183;-87
2021/04/12 10:30:52;;;;;;;4.55;4.12;;;;;;;13.24;100.00;101399.73;1807589;79;22277;-87
2021/04/12 10:33:41;;;;;;;5.72;5.10;;;;;;;13.21;100.00;101399.98;1809041;79;21183;-87
2021/04/12 10:36:31;;;;;;;7.53;6.50;;;;;;;13.18;100.00;101406.73;1802242;79;21136;-87
2021/04/12 10:39:10;;;;;;;10.08;7.67;;;;;;;13.15;100.00;101407.80;1795904;78;21109;-87
2021/04/12 10:41:46;;;;;;;11.40;7.78;;;;;;;13.11;100.00;101415.48;1798692;79;21125;-86
2021/04/12 10:44:41;;;;;;;7.58;6.67;;;;;;;13.02;100.00;101416.19;1774184;79;21380;-87
2021/04/12 10:47:35;;;;;;;8.25;7.10;;;;;;;12.94;100.00;101414.94;1799741;77;22249;-84
2021/04/12 10:50:37;;;;;;;6.60;5.90;;;;;;;12.87;100.00;101416.81;1811171;78;21124;-84
2021/04/12 10:57:12;;;;;;;7.33;6.30;;;;;;;12.82;100.00;101413.22;1808724;77;21180;-84
2021/04/12 11:00:27;;;;;;;7.35;6.17;;;;;;;12.85;100.00;101414.78;1796451;78;21432;-87
2021/04/12 11:03:11;;;;;;;8.58;7.37;;;;;;;12.91;100.00;101413.02;1799032;78;21154;-87
2021/04/12 11:05:45;;;;;;;7.85;7.05;;;;;;;13.01;100.00;101412.72;1778107;77;21209;-87
2021/04/12 11:08:29;;;;;;;9.73;6.90;;;;;;;13.06;100.00;101411.91;1798038;79;21129;-88
2021/04/12 11:11:22;;;;;;;12.07;8.85;;;;;;;13.14;100.00;101413.97;1852265;77;21146;-88
2021/04/12 11:14:28;;;;;;;8.83;6.83;;;;;;;13.28;100.00;101419.95;1850783;77;21289;-88
2021/04/12 11:17:17;;;;;;;8.75;6.53;;;;;;;13.41;100.00;101420.77;1853289;77;21615;-88
2021/04/12 11:20:15;;;;;;;8.10;5.85;;;;;;;13.54;100.00;101421.50;1847740;77;21154;-88
2021/04/12 11:22:58;;;;;;;10.95;5.90;;;;;;;13.66;100.00;101418.93;1849042;77;21554;-87
2021/04/12 11:25:42;;;;;;;6.17;5.58;;;;;;;13.72;100.00;101420.59;1821155;77;21103;-88
2021/04/12 11:28:40;;;;;;;7.35;5.78;;;;;;;13.77;100.00;101424.66;1809472;77;22063;-87
2021/04/12 11:31:38;;;;;;;6.40;5.75;;;;;;;13.77;100.00;101422.86;1837665;77;21569;-87
2021/04/12 11:34:27;;;;;;;6.15;5.20;;;;;;;13.78;100.00;101415.86;1826649;77;21158;-87
2021/04/12 11:41:54;;;;;;;6.45;5.85;;;;;;;13.62;100.00;101413.55;1816526;77;21199;-88
2021/04/12 11:44:53;;;;;;;7.83;7.03;;;;;;;13.48;100.00;101403.66;1827911;77;21373;-88
2021/04/12 11:52:12;;;;;;;8.30;7.42;;;;;;;13.45;100.00;101417.45;1809764;79;21559;-88
2021/04/12 12:07:16;;;;;;;12.03;10.82;;;;;;;13.34;100.00;101408.58;1817795;79;21139;-89
2021/04/12 12:17:53;;;;;;;15.72;13.30;;;;;;;13.21;100.00;101399.98;1825991;77;21140;-89
2021/04/12 12:21:13;;;;;;;12.18;9.98;;;;;;;13.19;100.00;101400.07;1847627;77;21564;-89
2021/04/12 12:32:16;;;;;;;12.45;11.15;;;;;;;13.22;100.00;101394.62;1848632;77;21135;-89
2021/04/12 12:48:03;;;;;;;17.40;14.28;;;;;;;12.87;100.00;101389.37;1844577;77;21134;-89
2021/04/12 12:59:28;;;;;;;22.17;14.28;;;;;;;12.79;100.00;101400.36;1820814;77;21132;-89
2021/04/12 13:10:49;;;;;;;18.67;14.78;;;;;;;12.78;100.00;101413.92;1816465;77;21139;-89
2021/04/12 13:17:36;;;;;;;20.55;15.93;;;;;;;12.68;100.00;101417.30;1809395;79;21089;-89
2021/04/12 13:28:41;;;;;;;21.52;15.25;;;;;;;12.71;100.00;101424.91;1805526;78;21163;-89
2021/04/12 13:44:23;;;;;;;25.48;16.37;;;;;;;12.87;100.00;101432.02;1798660;79;21148;-88
2021/04/12 13:51:26;;;;;;;23.87;16.02;;;;;;;12.77;100.00;101430.54;1814785;77;21182;-89
2021/04/12 14:03:16;;;;;;;18.75;14.75;;;;;;;12.73;100.00;101445.23;1816003;77;21136;-89
2021/04/12 14:14:17;;;;;;;24.67;13.72;;;;;;;12.59;100.00;101457.52;1749123;81;21123;-87
2021/04/12 14:21:20;;;;;;;18.10;12.65;;;;;;;12.53;100.00;101462.32;1739009;82;21555;-89
2021/04/12 14:31:43;;;;;;;18.23;11.15;;;;;;;12.43;100.00;101467.36;1737116;82;21160;-89
2021/04/12 14:34:48;;;;;;;20.45;11.10;;;;;;;12.42;100.00;101470.91;1758094;78;21120;-89
2021/04/12 14:41:29;;;;;;;18.60;10.25;;;;;;;12.37;100.00;101479.55;1808008;78;21140;-88
2021/04/12 14:44:26;;;;;;;;;;;;;;;12.28;100.00;101484.46;1822164;78;21516;-89
2021/04/12 14:50:33;;;;;;;17.45;11.12;;;;;;;12.24;100.00;101484.77;1809198;78;21143;-90
2021/04/12 14:53:15;;;;;;;17.02;10.28;;;;;;;12.25;100.00;101491.19;1810664;77;21095;-92
2021/04/12 14:55:46;;;;;;;15.43;10.30;;;;;;;12.25;100.00;101492.49;1802462;77;21202;-91
2021/04/12 15:07:29;;;;;;;17.55;11.12;;;;;;;12.26;100.00;101486.78;1798681;77;21056;-85
2021/04/12 15:26:38;;;;;;;12.28;9.63;;;;;;;12.14;100.00;101501.52;1791828;80;21201;-83
2021/04/12 15:29:50;;;;;;;15.20;10.38;;;;;;;12.15;100.00;101498.81;1769881;80;21540;-87
2021/04/12 15:36:54;;;;;;;16.80;11.03;;;;;;;12.14;100.00;101504.13;1762013;80;21610;-86
2021/04/12 15:48:23;;;;;;;13.68;8.38;;;;;;;12.05;100.00;101503.47;1806880;78;21560;-87
2021/04/12 15:55:42;;;;;;;11.12;8.18;;;;;;;11.83;100.00;101509.61;1798635;79;21465;-87
2021/04/12 15:58:24;;;;;;;16.32;9.18;;;;;;;11.76;100.00;101518.78;1798874;77;21551;-88
2021/04/12 16:01:25;;;;;;;17.77;8.85;;;;;;;11.71;100.00;101520.84;1797882;79;21166;-87
2021/04/12 16:04:38;;;;;;;13.13;7.55;;;;;;;11.71;100.00;101527.36;1798649;79;21135;-87
2021/04/12 16:10:54;;;;;;;14.40;8.25;;;;;;;11.75;100.00;101526.24;1853330;77;21154;-88
2021/04/12 16:13:50;;;;;;;16.75;8.80;;;;;;;11.79;100.00;101531.61;1847507;77;22252;-88
2021/04/12 16:16:37;;;;;;;36.48;13.72;;;;;;;11.78;100.00;101533.02;1806739;77;21119;-88
2021/04/12 16:19:27;;;;;;;21.20;9.93;;;;;;;11.77;100.00;101537.42;1807174;78;21147;-89
2021/04/12 16:22:30;;;;;;;40.40;11.15;;;;;;;11.79;100.00;101536.01;1769883;80;21148;-88
2021/04/12 16:25:15;;;;;;;38.50;15.40;;;;;;;11.84;100.00;101536.53;1743259;81;21156;-88
2021/04/12 16:28:09;;;;;;;40.33;13.10;;;;;;;11.90;100.00;101538.73;1755364;80;21175;-89
2021/04/12 16:30:56;;;;;;;17.40;8.70;;;;;;;11.97;100.00;101536.14;1757540;81;21147;-89
2021/04/12 16:33:41;;;;;;;21.77;8.30;;;;;;;12.03;100.00;101540.57;1758711;81;21613;-88
2021/04/12 16:36:23;;;;;;;15.23;8.60;;;;;;;12.04;100.00;101535.24;1758353;81;21156;-89
2021/04/12 16:43:36;;;;;;;15.63;8.75;;;;;;;12.07;100.00;101540.72;1853767;77;21142;-89
2021/04/12 16:46:31;;;;;;;17.87;8.35;;;;;;;12.06;100.00;101550.83;1850436;77;21135;-86
2021/04/12 16:52:35;;;;;;;24.20;7.08;;;;;;;11.99;100.00;101553.81;1853649;77;21528;-89
2021/04/12 16:55:20;;;;;;;27.85;6.70;;;;;;;11.95;100.00;101561.91;1845162;77;21123;-89
2021/04/12 16:57:59;;;;;;;23.07;6.50;;;;;;;11.89;100.00;101564.48;1834304;77;21541;-88
2021/04/12 17:05:15;;;;;;;19.23;6.28;;;;;;;11.79;100.00;101562.92;1809180;79;21126;-88
2021/04/12 17:07:53;;;;;;;14.25;5.67;;;;;;;11.75;100.00;101565.38;1803531;77;21052;-88
2021/04/12 17:18:54;;;;;;;23.75;7.47;;;;;;;11.75;100.00;101571.91;1801481;79;21162;-87
2021/04/12 17:21:39;;;;;;;20.43;6.40;;;;;;;11.71;100.00;101570.89;1793248;79;21528;-88
2021/04/12 17:24:28;;;;;;;17.05;6.42;;;;;;;11.68;100.00;101572.76;1771474;80;21526;-88
2021/04/12 17:27:15;;;;;;;12.28;6.05;;;;;;;11.68;100.00;101562.32;1780232;80;21126;-88
2021/04/12 17:30:32;;;;;;;12.45;6.22;;;;;;;11.71;100.00;101557.37;1790552;77;21460;-88
2021/04/12 17:33:09;;;;;;;19.32;6.55;;;;;;;11.68;100.00;101563.62;1801777;79;21575;-89
2021/04/12 17:35:43;;;;;;;9.10;5.92;;;;;;;11.66;100.00;101562.88;1793306;79;21145;-88
2021/04/12 17:38:35;;;;;;;6.92;5.87;;;;;;;11.66;100.00;101570.70;1800470;79;21091;-88
2021/04/12 17:49:41;;;;;;;9.03;6.87;;;;;;;11.64;100.00;101569.99;1798859;77;21163;-88
2021/04/12 17:52:27;;;;;;;10.15;6.80;;;;;;;11.61;100.00;101568.05;1799712;79;21086;-88
2021/04/12 17:55:34;;;;;;;9.40;6.90;;;;;;;11.58;100.00;101563.84;1772672;77;21135;-88
2021/04/12 18:02:21;;;;;;;8.00;7.00;;;;;;;11.38;100.00;101563.81;1801817;79;21154;-88
2021/04/12 18:05:35;;;;;;;7.97;6.95;;;;;;;11.18;100.00;101562.46;1768364;80;21199;-88
2021/04/12 18:08:09;;;;;;;11.08;8.03;;;;;;;11.07;100.00;101562.31;1739008;82;21541;-88
